Time;durP1;ratioP1;P1;durP2;ratioP2;P2;SDS_P1;SDS_P2;PMS_P1;PMS_P2;Temp;Humidity;BMP_temperature;BMP_pressure;BME280_temperature;BME280_humidity;BME280_pressure;Samples;Min_cycle;Max_cycle;Signal;HPM_P1;HPM_P2
2022/01/23 00:01:16;;;;;;;;;;;20.50;32.50;;;;;;466648;255;2283;-45
2022/01/23 00:03:19;;;;;;;;;;;20.50;32.50;;;;;;466652;254;1029;-45
2022/01/23 00:05:21;;;;;;;;;;;20.50;32.50;;;;;;466739;255;2331;-46
2022/01/23 00:07:20;;;;;;;;;;;20.50;32.50;;;;;;466975;254;2797;-45
2022/01/23 00:09:21;;;;;;;;;;;20.50;32.50;;;;;;466787;254;1165;-45
2022/01/23 00:11:26;;;;;;;;;;;20.50;32.50;;;;;;466995;253;1152;-45
2022/01/23 00:13:28;;;;;;;;;;;20.40;32.50;;;;;;466969;254;2212;-45
2022/01/23 00:17:46;;;;;;;;;;;20.50;32.60;;;;;;466701;255;1238;-45
2022/01/23 00:19:47;;;;;;;;;;;20.50;32.60;;;;;;466669;254;2209;-45
2022/01/23 00:21:52;;;;;;;;;;;20.50;32.50;;;;;;466777;254;1087;-45
2022/01/23 00:30:58;;;;;;;;;;;20.50;32.60;;;;;;466940;255;1303;-45
2022/01/23 00:32:57;;;;;;;;;;;20.50;32.60;;;;;;466863;254;1937;-45
2022/01/23 00:34:58;;;;;;;;;;;20.50;32.60;;;;;;467148;254;1065;-45
2022/01/23 00:37:00;;;;;;;;;;;20.50;32.60;;;;;;466632;254;1254;-45
2022/01/23 00:39:01;;;;;;;;;;;20.50;32.60;;;;;;466697;254;1245;-45
2022/01/23 00:41:02;;;;;;;;;;;20.50;32.60;;;;;;467075;254;2197;-45
2022/01/23 00:43:08;;;;;;;;;;;20.50;32.50;;;;;;467102;254;1180;-45
2022/01/23 00:45:22;;;;;;;;;;;20.50;32.50;;;;;;466902;255;2458;-45
2022/01/23 00:47:11;;;;;;;;;;;20.50;32.50;;;;;;465555;255;2400;-45
2022/01/23 00:49:25;;;;;;;;;;;20.60;32.30;;;;;;466750;255;2268;-45
2022/01/23 00:51:26;;;;;;;;;;;20.80;32.00;;;;;;467059;254;1438;-46
2022/01/23 00:53:28;;;;;;;;;;;21.00;31.70;;;;;;467024;254;1257;-45
2022/01/23 00:55:29;;;;;;;;;;;21.10;31.50;;;;;;466783;254;1237;-45
2022/01/23 00:57:30;;;;;;;;;;;21.20;31.30;;;;;;467142;254;1082;-45
2022/01/23 00:59:32;;;;;;;;;;;21.30;31.30;;;;;;466915;254;1286;-45
2022/01/23 01:01:33;;;;;;;;;;;21.40;31.20;;;;;;466621;254;2201;-45
2022/01/23 01:03:34;;;;;;;;;;;21.40;31.00;;;;;;467098;254;1305;-45
2022/01/23 01:05:36;;;;;;;;;;;21.50;31.00;;;;;;466956;254;1358;-45
2022/01/23 01:07:37;;;;;;;;;;;21.50;30.90;;;;;;467028;254;1178;-45
2022/01/23 01:09:39;;;;;;;;;;;21.60;30.90;;;;;;466961;254;1081;-45
2022/01/23 01:14:20;;;;;;;;;;;21.70;30.80;;;;;;466685;254;1339;-45
2022/01/23 01:16:23;;;;;;;;;;;21.70;30.70;;;;;;465202;255;2136;-46
2022/01/23 01:32:05;;;;;;;;;;;21.90;30.40;;;;;;466801;254;1170;-46
2022/01/23 01:34:07;;;;;;;;;;;22.00;30.40;;;;;;466412;255;2131;-45
2022/01/23 01:36:17;;;;;;;;;;;22.00;30.40;;;;;;466782;255;2292;-45
2022/01/23 01:38:05;;;;;;;;;;;22.00;30.30;;;;;;466282;255;2275;-46
2022/01/23 01:40:06;;;;;;;;;;;22.00;30.30;;;;;;466928;254;2225;-46
2022/01/23 01:42:08;;;;;;;;;;;22.00;30.30;;;;;;466877;254;1283;-46
2022/01/23 01:44:09;;;;;;;;;;;22.10;30.30;;;;;;466692;254;1053;-45
2022/01/23 01:46:10;;;;;;;;;;;22.00;30.20;;;;;;466648;254;1058;-45
2022/01/23 01:48:13;;;;;;;;;;;22.10;30.30;;;;;;467077;255;1205;-45
2022/01/23 01:50:13;;;;;;;;;;;22.10;30.20;;;;;;466873;255;2533;-45
2022/01/23 01:52:14;;;;;;;;;;;22.10;30.20;;;;;;466403;255;1240;-46
2022/01/23 01:54:19;;;;;;;;;;;22.10;30.20;;;;;;466648;254;1026;-46
2022/01/23 01:56:17;;;;;;;;;;;22.10;30.10;;;;;;466511;255;2132;-45
2022/01/23 01:58:45;;;;;;;;;;;22.20;30.20;;;;;;467103;254;1068;-45
2022/01/23 02:00:44;;;;;;;;;;;22.20;30.20;;;;;;465857;255;2193;-45
2022/01/23 02:02:54;;;;;;;;;;;22.20;30.20;;;;;;466727;255;2550;-45
2022/01/23 02:09:27;;;;;;;;;;;22.20;30.10;;;;;;467174;254;1113;-45
2022/01/23 02:11:38;;;;;;;;;;;22.20;30.10;;;;;;466406;255;2546;-46
2022/01/23 02:13:30;;;;;;;;;;;22.30;30.10;;;;;;465672;255;2043;-45
2022/01/23 02:15:48;;;;;;;;;;;22.30;30.10;;;;;;466436;255;2014;-45
2022/01/23 02:17:58;;;;;;;;;;;22.20;30.00;;;;;;466512;254;2268;-45
2022/01/23 02:22:39;;;;;;;;;;;22.30;30.00;;;;;;466643;254;2138;-46
2022/01/23 02:50:49;;;;;;;;;;;22.40;30.00;;;;;;466613;255;1062;-46
2022/01/23 02:53:12;;;;;;;;;;;22.40;30.00;;;;;;466431;255;2211;-45
2022/01/23 02:54:57;;;;;;;;;;;22.40;30.00;;;;;;465689;255;2299;-45
2022/01/23 02:57:02;;;;;;;;;;;22.40;30.00;;;;;;466571;255;2020;-45
2022/01/23 02:58:59;;;;;;;;;;;22.40;30.00;;;;;;466545;255;2113;-46
2022/01/23 03:01:09;;;;;;;;;;;22.50;30.00;;;;;;466773;255;2134;-45
2022/01/23 03:03:09;;;;;;;;;;;22.50;30.00;;;;;;466759;255;2369;-45
2022/01/23 03:05:11;;;;;;;;;;;22.50;30.00;;;;;;466519;255;2316;-45
2022/01/23 03:07:18;;;;;;;;;;;22.50;30.00;;;;;;466450;255;2115;-45
2022/01/23 03:11:56;;;;;;;;;;;22.50;30.00;;;;;;460364;254;1194;-45
2022/01/23 03:13:47;;;;;;;;;;;22.50;30.00;;;;;;456847;258;2049;-45
2022/01/23 03:16:10;;;;;;;;;;;22.50;30.00;;;;;;457745;259;2358;-46
2022/01/23 03:25:09;;;;;;;;;;;22.50;30.00;;;;;;461227;258;1094;-46
2022/01/23 03:27:24;;;;;;;;;;;22.50;30.00;;;;;;458839;258;2311;-46
2022/01/23 03:29:20;;;;;;;;;;;22.60;30.00;;;;;;456936;258;2015;-46
2022/01/23 03:31:23;;;;;;;;;;;22.60;30.00;;;;;;457744;258;2082;-46
2022/01/23 03:33:22;;;;;;;;;;;22.60;30.00;;;;;;457591;259;1827;-46
2022/01/23 03:35:23;;;;;;;;;;;22.60;30.00;;;;;;458202;258;1069;-46
2022/01/23 03:37:24;;;;;;;;;;;22.60;30.00;;;;;;457545;258;1299;-45
2022/01/23 03:39:26;;;;;;;;;;;22.60;30.00;;;;;;457723;258;1213;-46
2022/01/23 03:41:27;;;;;;;;;;;22.60;30.00;;;;;;457906;258;2123;-46
2022/01/23 03:43:31;;;;;;;;;;;22.60;30.00;;;;;;457752;258;1099;-45
2022/01/23 03:45:55;;;;;;;;;;;22.60;30.00;;;;;;457959;259;1495;-46
2022/01/23 03:47:52;;;;;;;;;;;22.60;30.00;;;;;;457043;259;2335;-45
2022/01/23 03:49:42;;;;;;;;;;;22.60;30.00;;;;;;457272;259;2371;-45
2022/01/23 03:51:43;;;;;;;;;;;22.60;30.00;;;;;;457715;258;1336;-45
2022/01/23 03:53:45;;;;;;;;;;;22.70;30.00;;;;;;458217;259;1220;-46
2022/01/23 03:55:48;;;;;;;;;;;22.60;30.00;;;;;;459878;258;1161;-45
2022/01/23 03:57:47;;;;;;;;;;;22.60;30.00;;;;;;460099;258;2496;-46
2022/01/23 03:59:49;;;;;;;;;;;22.60;30.00;;;;;;460084;258;1076;-45
2022/01/23 04:01:50;;;;;;;;;;;22.60;30.00;;;;;;457816;259;2146;-46
2022/01/23 04:03:53;;;;;;;;;;;22.70;30.00;;;;;;457595;259;1217;-45
2022/01/23 04:05:53;;;;;;;;;;;22.60;30.00;;;;;;458050;259;2392;-46
2022/01/23 04:07:54;;;;;;;;;;;22.70;30.00;;;;;;460428;258;1217;-46
2022/01/23 04:09:55;;;;;;;;;;;22.70;30.00;;;;;;460732;258;1092;-45
2022/01/23 04:11:58;;;;;;;;;;;22.70;30.00;;;;;;460795;258;1305;-45
2022/01/23 04:14:03;;;;;;;;;;;22.70;30.00;;;;;;461964;257;2159;-45
2022/01/23 04:16:13;;;;;;;;;;;22.70;30.00;;;;;;461250;258;2376;-45
2022/01/23 04:20:41;;;;;;;;;;;22.70;30.00;;;;;;460770;258;1164;-46
2022/01/23 04:32:08;;;;;;;;;;;22.70;30.00;;;;;;461424;257;1199;-45
2022/01/23 04:33:59;;;;;;;;;;;22.70;29.90;;;;;;461034;257;2200;-45
2022/01/23 04:45:39;;;;;;;;;;;22.70;30.00;;;;;;452174;258;2309;-46
2022/01/23 04:59:35;;;;;;;;;;;22.80;30.00;;;;;;446846;266;1091;-45
2022/01/23 05:01:48;;;;;;;;;;;22.80;30.00;;;;;;454291;259;2349;-46
2022/01/23 05:04:07;;;;;;;;;;;22.80;30.00;;;;;;460504;258;2093;-46
2022/01/23 05:06:00;;;;;;;;;;;22.80;30.00;;;;;;459589;258;1529;-46
2022/01/23 05:07:57;;;;;;;;;;;22.80;30.00;;;;;;460045;258;2021;-46
2022/01/23 05:09:57;;;;;;;;;;;22.80;30.00;;;;;;460755;257;2277;-45
2022/01/23 05:11:59;;;;;;;;;;;22.80;30.00;;;;;;460607;257;1210;-45
2022/01/23 05:14:00;;;;;;;;;;;22.80;30.00;;;;;;460092;258;1273;-45
2022/01/23 05:16:01;;;;;;;;;;;22.80;29.90;;;;;;460633;256;1076;-45
2022/01/23 05:18:03;;;;;;;;;;;22.80;29.90;;;;;;460162;257;1097;-46
2022/01/23 05:20:04;;;;;;;;;;;22.90;30.00;;;;;;460304;257;1248;-45
2022/01/23 05:22:20;;;;;;;;;;;22.80;29.90;;;;;;460648;257;2200;-45
2022/01/23 05:24:23;;;;;;;;;;;22.80;29.90;;;;;;460583;258;2603;-45
2022/01/23 05:26:20;;;;;;;;;;;22.80;29.90;;;;;;460749;258;2235;-46
2022/01/23 05:28:21;;;;;;;;;;;22.80;29.90;;;;;;460665;257;1275;-45
2022/01/23 05:30:22;;;;;;;;;;;22.80;29.90;;;;;;460160;256;983;-46
2022/01/23 05:32:25;;;;;;;;;;;22.80;29.90;;;;;;460581;258;1089;-45
2022/01/23 05:34:26;;;;;;;;;;;22.80;29.90;;;;;;460028;258;2384;-46
2022/01/23 05:36:26;;;;;;;;;;;22.90;30.00;;;;;;460171;258;2493;-46
2022/01/23 05:38:27;;;;;;;;;;;22.80;29.90;;;;;;460613;258;1090;-46
2022/01/23 05:40:30;;;;;;;;;;;22.90;29.90;;;;;;460786;257;1088;-45
2022/01/23 05:42:30;;;;;;;;;;;22.90;30.00;;;;;;460400;258;2205;-46
2022/01/23 05:44:31;;;;;;;;;;;22.90;30.00;;;;;;461026;256;1050;-46
2022/01/23 05:46:33;;;;;;;;;;;22.90;29.90;;;;;;460465;256;1168;-46
2022/01/23 05:48:34;;;;;;;;;;;22.90;29.90;;;;;;460774;256;1098;-46
2022/01/23 05:50:35;;;;;;;;;;;22.90;29.90;;;;;;460545;256;1096;-46
2022/01/23 05:52:37;;;;;;;;;;;22.90;29.90;;;;;;460640;256;1203;-46
2022/01/23 05:54:38;;;;;;;;;;;22.90;29.90;;;;;;461002;256;1065;-45
2022/01/23 05:56:39;;;;;;;;;;;22.90;30.00;;;;;;460428;256;1485;-45
2022/01/23 05:58:41;;;;;;;;;;;22.90;30.00;;;;;;460090;256;1150;-45
2022/01/23 06:00:42;;;;;;;;;;;22.90;29.90;;;;;;460545;256;1395;-46
2022/01/23 06:02:43;;;;;;;;;;;22.90;29.90;;;;;;460203;256;2141;-46
2022/01/23 06:04:44;;;;;;;;;;;22.90;29.90;;;;;;460509;258;1191;-46
2022/01/23 06:06:46;;;;;;;;;;;22.90;29.90;;;;;;460639;257;1384;-45
2022/01/23 06:08:47;;;;;;;;;;;22.90;29.90;;;;;;460733;257;1049;-45
2022/01/23 06:10:55;;;;;;;;;;;22.90;29.90;;;;;;460576;257;1093;-45
2022/01/23 06:12:55;;;;;;;;;;;22.90;30.00;;;;;;459435;258;2330;-46
2022/01/23 06:14:56;;;;;;;;;;;22.90;30.00;;;;;;457852;258;1065;-45
2022/01/23 06:16:57;;;;;;;;;;;22.90;30.00;;;;;;457802;258;1145;-45
2022/01/23 06:18:58;;;;;;;;;;;22.90;30.00;;;;;;457868;259;1048;-46
2022/01/23 06:21:00;;;;;;;;;;;22.90;29.90;;;;;;457657;258;1109;-46
2022/01/23 06:23:02;;;;;;;;;;;22.90;29.90;;;;;;457707;258;2128;-45
2022/01/23 06:25:05;;;;;;;;;;;22.90;30.00;;;;;;457826;258;1088;-46
2022/01/23 06:27:04;;;;;;;;;;;22.90;29.90;;;;;;457984;258;2477;-46
2022/01/23 06:29:06;;;;;;;;;;;22.90;29.90;;;;;;458396;258;1281;-46
2022/01/23 06:31:06;;;;;;;;;;;22.90;29.90;;;;;;460409;258;1450;-45
2022/01/23 06:33:08;;;;;;;;;;;22.90;29.90;;;;;;461191;258;1163;-45
2022/01/23 06:35:09;;;;;;;;;;;22.90;29.90;;;;;;459978;257;1084;-45
2022/01/23 06:37:10;;;;;;;;;;;22.90;29.90;;;;;;460548;258;1250;-45
2022/01/23 06:39:12;;;;;;;;;;;22.90;29.90;;;;;;458741;257;1350;-46
2022/01/23 06:41:13;;;;;;;;;;;22.90;29.90;;;;;;457974;258;2254;-45
2022/01/23 06:43:14;;;;;;;;;;;22.90;30.00;;;;;;458019;258;2197;-45
2022/01/23 06:45:16;;;;;;;;;;;22.80;30.00;;;;;;457910;258;1456;-46
2022/01/23 06:47:19;;;;;;;;;;;22.60;30.20;;;;;;460151;258;1239;-46
2022/01/23 06:49:18;;;;;;;;;;;22.40;30.60;;;;;;460748;257;2511;-46
2022/01/23 06:51:20;;;;;;;;;;;22.20;30.90;;;;;;458416;257;1283;-45
2022/01/23 06:53:21;;;;;;;;;;;22.10;31.20;;;;;;457922;258;1184;-46
2022/01/23 06:55:22;;;;;;;;;;;22.00;31.20;;;;;;457694;258;1269;-46
2022/01/23 06:57:24;;;;;;;;;;;21.90;31.30;;;;;;458550;258;1446;-46
2022/01/23 06:59:25;;;;;;;;;;;21.90;31.40;;;;;;459353;258;1222;-45
2022/01/23 07:01:26;;;;;;;;;;;21.80;31.50;;;;;;458371;258;1236;-45
2022/01/23 07:03:28;;;;;;;;;;;21.80;31.50;;;;;;460550;257;2131;-45
2022/01/23 07:05:29;;;;;;;;;;;21.80;31.70;;;;;;460335;257;1069;-45
2022/01/23 07:07:30;;;;;;;;;;;21.70;31.70;;;;;;460668;258;1559;-45
2022/01/23 07:09:32;;;;;;;;;;;21.70;31.80;;;;;;460225;257;1220;-46
2022/01/23 07:11:33;;;;;;;;;;;21.60;31.80;;;;;;458644;258;1146;-46
2022/01/23 07:13:34;;;;;;;;;;;21.60;31.90;;;;;;457820;258;1341;-45
2022/01/23 07:15:36;;;;;;;;;;;21.60;32.00;;;;;;457684;258;1090;-45
2022/01/23 07:17:37;;;;;;;;;;;21.50;31.90;;;;;;457792;258;1097;-45
2022/01/23 07:19:38;;;;;;;;;;;21.50;32.00;;;;;;458465;258;1035;-45
2022/01/23 07:21:40;;;;;;;;;;;21.50;32.00;;;;;;457935;259;1068;-45
2022/01/23 07:23:49;;;;;;;;;;;21.40;32.00;;;;;;458119;258;2130;-45
2022/01/23 07:25:42;;;;;;;;;;;21.50;32.10;;;;;;457617;258;2088;-45
2022/01/23 07:27:48;;;;;;;;;;;21.40;32.10;;;;;;457914;258;1337;-45
2022/01/23 07:29:46;;;;;;;;;;;21.40;32.10;;;;;;458039;259;2102;-45
2022/01/23 07:32:00;;;;;;;;;;;21.40;32.10;;;;;;457449;256;2222;-46
2022/01/23 07:34:00;;;;;;;;;;;21.40;32.20;;;;;;457734;259;2067;-45
2022/01/23 07:36:02;;;;;;;;;;;21.40;32.20;;;;;;457693;258;1718;-45
2022/01/23 07:38:03;;;;;;;;;;;21.40;32.30;;;;;;459367;258;1158;-45
2022/01/23 07:40:05;;;;;;;;;;;21.30;32.20;;;;;;457740;258;1060;-46
2022/01/23 07:42:06;;;;;;;;;;;21.30;32.30;;;;;;458702;258;2207;-45
2022/01/23 07:44:07;;;;;;;;;;;21.30;32.30;;;;;;458267;258;1169;-46
2022/01/23 07:46:09;;;;;;;;;;;21.30;32.30;;;;;;458050;258;1114;-46
2022/01/23 07:48:10;;;;;;;;;;;21.30;32.30;;;;;;458563;258;1048;-45
2022/01/23 07:50:12;;;;;;;;;;;21.30;32.40;;;;;;460539;258;1119;-45
2022/01/23 07:52:13;;;;;;;;;;;21.30;32.30;;;;;;460180;257;1342;-46
2022/01/23 07:54:14;;;;;;;;;;;21.30;32.30;;;;;;457814;258;1050;-45
2022/01/23 07:56:16;;;;;;;;;;;21.30;32.30;;;;;;457673;258;1158;-45
2022/01/23 07:58:18;;;;;;;;;;;21.20;32.30;;;;;;457971;258;1059;-45
2022/01/23 08:00:18;;;;;;;;;;;21.20;32.40;;;;;;457645;259;2207;-45
2022/01/23 08:02:22;;;;;;;;;;;21.20;32.40;;;;;;457692;258;2222;-45
2022/01/23 08:04:21;;;;;;;;;;;21.20;32.30;;;;;;457621;259;2292;-45
2022/01/23 08:06:28;;;;;;;;;;;21.20;32.40;;;;;;457565;258;1177;-45
2022/01/23 08:08:23;;;;;;;;;;;21.20;32.40;;;;;;457463;259;2213;-45
2022/01/23 08:10:25;;;;;;;;;;;21.20;32.40;;;;;;458049;258;1128;-45
2022/01/23 08:12:26;;;;;;;;;;;21.10;32.40;;;;;;457559;258;1185;-45
2022/01/23 08:14:27;;;;;;;;;;;21.20;32.40;;;;;;457730;258;1489;-45
2022/01/23 08:16:29;;;;;;;;;;;21.10;32.40;;;;;;457832;258;1185;-45
2022/01/23 08:18:30;;;;;;;;;;;21.20;32.40;;;;;;458141;258;1015;-45
2022/01/23 08:20:32;;;;;;;;;;;21.20;32.40;;;;;;457752;260;1236;-45
2022/01/23 08:22:33;;;;;;;;;;;21.20;32.30;;;;;;459859;258;2125;-45
2022/01/23 08:24:34;;;;;;;;;;;21.20;32.30;;;;;;460411;258;1236;-45
2022/01/23 08:26:35;;;;;;;;;;;21.10;32.30;;;;;;460476;258;1063;-46
2022/01/23 08:28:37;;;;;;;;;;;21.10;32.40;;;;;;460900;257;1228;-45
2022/01/23 08:30:38;;;;;;;;;;;21.20;32.30;;;;;;460566;258;1264;-45
2022/01/23 08:32:39;;;;;;;;;;;21.10;32.30;;;;;;460328;258;1023;-45
2022/01/23 08:34:41;;;;;;;;;;;21.10;32.30;;;;;;457857;258;1205;-45
2022/01/23 08:36:42;;;;;;;;;;;21.20;32.40;;;;;;458243;258;1105;-45
2022/01/23 08:38:43;;;;;;;;;;;21.20;32.30;;;;;;460612;257;1143;-45
2022/01/23 08:41:49;;;;;;;;;;;21.20;32.40;;;;;;460865;257;1078;-45
2022/01/23 08:42:51;;;;;;;;;;;21.20;32.40;;;;;;459015;258;2247;-45
2022/01/23 08:44:51;;;;;;;;;;;21.10;32.30;;;;;;458108;258;2392;-45
2022/01/23 08:46:52;;;;;;;;;;;21.20;32.30;;;;;;457761;259;1083;-45
2022/01/23 08:48:56;;;;;;;;;;;21.20;32.30;;;;;;457569;258;1064;-45
2022/01/23 08:50:55;;;;;;;;;;;21.10;32.30;;;;;;457559;259;2225;-45
2022/01/23 08:52:56;;;;;;;;;;;21.20;32.30;;;;;;457879;259;1144;-45
2022/01/23 08:54:57;;;;;;;;;;;21.10;32.30;;;;;;457681;258;1237;-45
2022/01/23 08:56:59;;;;;;;;;;;21.20;32.40;;;;;;457555;258;1211;-45
2022/01/23 08:59:00;;;;;;;;;;;21.20;32.30;;;;;;457727;259;1110;-45
2022/01/23 09:01:01;;;;;;;;;;;21.20;32.30;;;;;;457662;258;1303;-46
2022/01/23 09:03:03;;;;;;;;;;;21.10;32.30;;;;;;458024;259;2147;-45
2022/01/23 09:05:04;;;;;;;;;;;21.20;32.30;;;;;;457565;258;1367;-46
2022/01/23 09:07:05;;;;;;;;;;;21.20;32.30;;;;;;457898;258;1257;-45
2022/01/23 09:09:14;;;;;;;;;;;21.20;32.30;;;;;;458599;258;1266;-45
2022/01/23 09:11:11;;;;;;;;;;;21.20;32.30;;;;;;460529;253;2331;-45
2022/01/23 09:13:14;;;;;;;;;;;21.20;32.20;;;;;;460981;258;2108;-45
2022/01/23 09:15:11;;;;;;;;;;;21.20;32.20;;;;;;458694;258;2075;-45
2022/01/23 09:17:12;;;;;;;;;;;21.20;32.30;;;;;;457753;259;1258;-45
2022/01/23 09:19:13;;;;;;;;;;;21.20;32.20;;;;;;457591;258;1120;-45
2022/01/23 09:21:14;;;;;;;;;;;21.20;32.30;;;;;;460088;258;1210;-46
2022/01/23 09:23:16;;;;;;;;;;;21.20;32.30;;;;;;460389;258;2256;-45
2022/01/23 09:25:17;;;;;;;;;;;21.20;32.20;;;;;;460967;257;1052;-45
2022/01/23 09:27:19;;;;;;;;;;;21.10;32.20;;;;;;460650;258;1373;-45
2022/01/23 09:29:28;;;;;;;;;;;21.20;32.20;;;;;;460505;257;1153;-45
2022/01/23 09:31:29;;;;;;;;;;;21.20;32.20;;;;;;460064;258;1570;-45
2022/01/23 09:33:27;;;;;;;;;;;21.20;32.30;;;;;;460274;258;2141;-45
2022/01/23 09:35:28;;;;;;;;;;;21.20;32.30;;;;;;457906;258;1065;-45
2022/01/23 09:37:31;;;;;;;;;;;21.20;32.20;;;;;;457171;260;1235;-45
2022/01/23 09:39:31;;;;;;;;;;;21.20;32.20;;;;;;457309;260;2225;-46
2022/01/23 09:41:32;;;;;;;;;;;21.20;32.30;;;;;;457648;258;1080;-45
2022/01/23 09:43:33;;;;;;;;;;;21.20;32.20;;;;;;457586;258;2147;-45
2022/01/23 09:45:35;;;;;;;;;;;21.20;32.20;;;;;;459819;258;1284;-45
2022/01/23 09:47:36;;;;;;;;;;;21.20;32.30;;;;;;460616;257;1093;-45
2022/01/23 09:49:37;;;;;;;;;;;21.20;32.30;;;;;;459599;258;1183;-45
2022/01/23 09:51:39;;;;;;;;;;;21.20;32.40;;;;;;458505;258;1100;-45
2022/01/23 09:53:41;;;;;;;;;;;21.20;32.30;;;;;;457658;258;1355;-46
2022/01/23 09:55:42;;;;;;;;;;;21.10;32.40;;;;;;458037;258;1090;-45
2022/01/23 09:57:43;;;;;;;;;;;21.10;32.40;;;;;;457750;258;1267;-45
2022/01/23 09:59:45;;;;;;;;;;;21.00;32.40;;;;;;457883;258;1065;-45
2022/01/23 10:01:53;;;;;;;;;;;21.00;32.50;;;;;;457575;258;1219;-45
2022/01/23 10:03:47;;;;;;;;;;;21.00;32.50;;;;;;458011;259;2146;-45
2022/01/23 10:05:49;;;;;;;;;;;21.00;32.60;;;;;;457636;258;1104;-46
2022/01/23 10:07:51;;;;;;;;;;;21.00;32.50;;;;;;458433;258;1183;-45
2022/01/23 10:09:56;;;;;;;;;;;21.00;32.50;;;;;;460734;257;1114;-45
2022/01/23 10:11:54;;;;;;;;;;;21.00;32.50;;;;;;460011;258;2104;-46
2022/01/23 10:13:55;;;;;;;;;;;20.90;32.50;;;;;;461040;258;1116;-45
2022/01/23 10:15:57;;;;;;;;;;;20.90;32.50;;;;;;460736;258;1180;-45
2022/01/23 10:17:58;;;;;;;;;;;20.90;32.60;;;;;;460891;257;1080;-45
2022/01/23 10:19:59;;;;;;;;;;;20.90;32.60;;;;;;460876;258;1015;-45
2022/01/23 10:22:03;;;;;;;;;;;20.90;32.60;;;;;;458043;258;1510;-45
2022/01/23 10:24:02;;;;;;;;;;;20.90;32.60;;;;;;461218;258;2202;-45
2022/01/23 10:26:04;;;;;;;;;;;20.90;32.70;;;;;;460837;258;1381;-45
2022/01/23 10:28:06;;;;;;;;;;;20.90;32.60;;;;;;460693;258;2200;-45
2022/01/23 10:30:06;;;;;;;;;;;20.80;32.70;;;;;;460786;258;2390;-45
2022/01/23 10:32:07;;;;;;;;;;;20.90;32.70;;;;;;460512;257;1327;-45
2022/01/23 10:34:09;;;;;;;;;;;20.90;32.70;;;;;;460677;258;1094;-45
2022/01/23 10:36:10;;;;;;;;;;;20.90;32.70;;;;;;460262;258;1189;-45
2022/01/23 10:38:14;;;;;;;;;;;20.80;32.70;;;;;;460039;257;1172;-46
2022/01/23 10:40:13;;;;;;;;;;;20.80;32.70;;;;;;460300;258;2504;-45
2022/01/23 10:42:23;;;;;;;;;;;20.80;32.70;;;;;;460309;258;1169;-45
2022/01/23 10:47:04;;;;;;;;;;;20.80;32.70;;;;;;458648;258;1306;-45
2022/01/23 10:48:45;;;;;;;;;;;20.80;32.80;;;;;;456592;260;1649;-45
2022/01/23 10:50:46;;;;;;;;;;;20.80;32.70;;;;;;457763;258;1034;-45
2022/01/23 10:52:48;;;;;;;;;;;20.80;32.70;;;;;;457788;258;1071;-45
2022/01/23 10:54:48;;;;;;;;;;;20.80;32.70;;;;;;457922;258;2297;-45
2022/01/23 10:56:50;;;;;;;;;;;20.80;32.80;;;;;;457916;258;1099;-45
2022/01/23 10:58:51;;;;;;;;;;;20.80;32.70;;;;;;458016;258;1193;-45
2022/01/23 11:00:52;;;;;;;;;;;20.80;32.80;;;;;;457653;258;1175;-46
2022/01/23 11:02:54;;;;;;;;;;;20.80;32.80;;;;;;458156;258;1384;-45
2022/01/23 11:04:55;;;;;;;;;;;20.80;32.70;;;;;;459887;258;2201;-45
2022/01/23 11:06:56;;;;;;;;;;;20.80;32.80;;;;;;458583;258;1243;-45
2022/01/23 11:08:57;;;;;;;;;;;20.70;32.80;;;;;;457869;258;1328;-46
2022/01/23 11:10:59;;;;;;;;;;;20.70;32.80;;;;;;457766;258;1194;-46
2022/01/23 11:17:40;;;;;;;;;;;20.80;32.80;;;;;;457741;260;1198;-45
2022/01/23 11:19:43;;;;;;;;;;;20.80;32.80;;;;;;458239;259;1082;-45
2022/01/23 11:21:42;;;;;;;;;;;20.70;32.80;;;;;;457244;260;2357;-45
2022/01/23 11:23:44;;;;;;;;;;;20.70;32.80;;;;;;457775;259;2215;-46
2022/01/23 11:25:45;;;;;;;;;;;20.70;32.80;;;;;;461061;258;1338;-45
2022/01/23 11:27:47;;;;;;;;;;;20.70;32.80;;;;;;457800;257;1200;-45
2022/01/23 11:29:48;;;;;;;;;;;20.70;32.70;;;;;;459394;258;1070;-45
2022/01/23 11:31:49;;;;;;;;;;;20.70;32.80;;;;;;457436;258;1540;-45
2022/01/23 11:33:51;;;;;;;;;;;20.70;32.80;;;;;;457924;258;1230;-45
2022/01/23 11:35:52;;;;;;;;;;;20.70;32.80;;;;;;458026;258;1249;-45
2022/01/23 11:37:53;;;;;;;;;;;20.70;32.90;;;;;;457746;258;1168;-45
2022/01/23 11:40:00;;;;;;;;;;;20.70;32.90;;;;;;457474;258;1063;-45
2022/01/23 11:53:46;;;;;;;;;;;20.70;32.90;;;;;;451529;259;1201;-46
2022/01/23 11:55:46;;;;;;;;;;;20.70;32.90;;;;;;457225;259;2623;-45
2022/01/23 11:57:48;;;;;;;;;;;20.70;32.90;;;;;;457715;258;1274;-45
2022/01/23 11:59:49;;;;;;;;;;;20.70;32.90;;;;;;459210;258;1086;-45
2022/01/23 12:01:51;;;;;;;;;;;20.60;32.90;;;;;;460637;256;1207;-45
2022/01/23 12:03:52;;;;;;;;;;;20.60;32.90;;;;;;460418;258;2292;-46
2022/01/23 12:05:53;;;;;;;;;;;20.70;32.90;;;;;;460370;258;1099;-45
2022/01/23 12:07:54;;;;;;;;;;;20.70;32.90;;;;;;460761;257;1166;-45
2022/01/23 12:09:56;;;;;;;;;;;20.60;32.90;;;;;;458564;258;1146;-45
2022/01/23 12:11:57;;;;;;;;;;;20.60;32.90;;;;;;460166;258;1408;-45
2022/01/23 12:16:20;;;;;;;;;;;20.60;32.90;;;;;;459614;258;1182;-45
2022/01/23 12:18:20;;;;;;;;;;;20.60;32.90;;;;;;457628;260;1613;-45
2022/01/23 12:20:21;;;;;;;;;;;20.60;32.90;;;;;;457673;259;2493;-45
2022/01/23 12:22:22;;;;;;;;;;;20.60;32.90;;;;;;457995;258;1372;-45
2022/01/23 12:24:23;;;;;;;;;;;20.60;33.00;;;;;;458113;258;2138;-45
2022/01/23 12:26:25;;;;;;;;;;;20.60;33.00;;;;;;457720;258;1093;-45
2022/01/23 12:28:28;;;;;;;;;;;20.60;32.90;;;;;;458287;258;1096;-45
2022/01/23 12:30:31;;;;;;;;;;;20.60;33.00;;;;;;457546;259;2268;-45
2022/01/23 12:32:30;;;;;;;;;;;20.60;32.90;;;;;;457901;258;2122;-45
2022/01/23 12:34:30;;;;;;;;;;;20.60;33.00;;;;;;457652;258;1601;-45
2022/01/23 12:36:32;;;;;;;;;;;20.50;32.90;;;;;;459140;258;1058;-45
2022/01/23 12:38:33;;;;;;;;;;;20.60;32.90;;;;;;460765;258;1097;-45
2022/01/23 12:40:35;;;;;;;;;;;20.60;32.90;;;;;;458075;257;1069;-45
2022/01/23 12:42:36;;;;;;;;;;;20.60;32.90;;;;;;458694;258;1234;-45
2022/01/23 12:44:37;;;;;;;;;;;20.60;32.90;;;;;;460366;258;2210;-45
2022/01/23 12:46:39;;;;;;;;;;;20.60;33.00;;;;;;460657;257;1398;-45
2022/01/23 12:48:40;;;;;;;;;;;20.60;33.00;;;;;;460816;258;1107;-45
2022/01/23 12:50:41;;;;;;;;;;;20.60;33.00;;;;;;458289;258;1722;-45
2022/01/23 12:52:43;;;;;;;;;;;20.50;33.00;;;;;;457808;259;1536;-45
2022/01/23 12:54:44;;;;;;;;;;;20.60;33.00;;;;;;457816;258;1057;-45
2022/01/23 12:56:46;;;;;;;;;;;20.50;32.90;;;;;;457375;258;1416;-45
2022/01/23 12:58:47;;;;;;;;;;;20.50;32.90;;;;;;459616;258;2469;-45
2022/01/23 13:00:48;;;;;;;;;;;20.50;33.00;;;;;;460550;258;1148;-45
2022/01/23 13:02:52;;;;;;;;;;;20.50;33.00;;;;;;457974;257;1251;-45
2022/01/23 13:04:51;;;;;;;;;;;20.50;33.00;;;;;;457626;259;2293;-45
2022/01/23 13:06:55;;;;;;;;;;;20.50;33.00;;;;;;457562;258;1362;-45
2022/01/23 13:09:03;;;;;;;;;;;20.50;33.00;;;;;;457705;259;2204;-45
2022/01/23 13:11:20;;;;;;;;;;;20.70;32.80;;;;;;457163;261;2011;-45
2022/01/23 13:13:17;;;;;;;;;;;20.90;32.40;;;;;;456735;261;2036;-45
2022/01/23 13:15:22;;;;;;;;;;;21.10;32.20;;;;;;457568;259;2067;-45
2022/01/23 13:17:34;;;;;;;;;;;21.20;31.90;;;;;;457481;259;2006;-45
2022/01/23 13:19:57;;;;;;;;;;;21.30;31.70;;;;;;457531;260;2295;-45
2022/01/23 13:26:35;;;;;;;;;;;21.50;31.30;;;;;;458485;258;1156;-45
2022/01/23 13:30:51;;;;;;;;;;;21.60;31.20;;;;;;450925;259;1186;-45
2022/01/23 13:32:56;;;;;;;;;;;21.70;31.20;;;;;;457736;258;2208;-46
2022/01/23 13:34:56;;;;;;;;;;;21.70;31.10;;;;;;459089;258;2384;-45
2022/01/23 13:36:54;;;;;;;;;;;21.70;31.10;;;;;;458144;259;2439;-45
2022/01/23 13:38:56;;;;;;;;;;;21.80;31.00;;;;;;457882;259;1064;-45
2022/01/23 13:41:04;;;;;;;;;;;21.80;31.00;;;;;;457958;258;1212;-45
2022/01/23 13:48:13;;;;;;;;;;;21.90;30.90;;;;;;438202;272;1155;-45
2022/01/23 13:52:39;;;;;;;;;;;22.00;30.80;;;;;;457702;258;1233;-45
2022/01/23 13:59:05;;;;;;;;;;;22.00;30.70;;;;;;457293;260;1099;-46
2022/01/23 14:01:31;;;;;;;;;;;22.10;30.70;;;;;;457472;256;1347;-46
2022/01/23 14:03:19;;;;;;;;;;;22.10;30.60;;;;;;457406;258;2339;-45
2022/01/23 14:05:22;;;;;;;;;;;22.10;30.60;;;;;;457708;259;2171;-45
2022/01/23 14:07:22;;;;;;;;;;;22.10;30.60;;;;;;457358;259;1511;-45
2022/01/23 14:09:24;;;;;;;;;;;22.10;30.60;;;;;;458261;258;1097;-45
2022/01/23 14:11:24;;;;;;;;;;;22.20;30.60;;;;;;459584;258;2153;-45
2022/01/23 14:13:26;;;;;;;;;;;22.20;30.60;;;;;;460565;258;1284;-46
2022/01/23 14:15:28;;;;;;;;;;;22.20;30.50;;;;;;458442;258;1120;-45
2022/01/23 14:17:31;;;;;;;;;;;22.20;30.50;;;;;;457732;258;1204;-45
2022/01/23 14:19:30;;;;;;;;;;;22.20;30.50;;;;;;458790;258;2114;-45
2022/01/23 14:21:31;;;;;;;;;;;22.30;30.50;;;;;;463015;255;1207;-45
2022/01/23 14:23:33;;;;;;;;;;;22.20;30.50;;;;;;468085;253;1237;-45